Language selection

Features

My Weather Profile Weather Topics  | 

Johnstone Strait: Past 24 Hour Conditions

 

English Bay - 46304

07:00 AM PDT 10 April 2021Buoy position: 49.3N 123.36W
Disclaimer

This table is a summary of hourly weather conditions for the past 24 hours.
Please note that these observations might not always be representative of weather conditions over their associated marine area.

Date / Time
(PDT)
Wind(knots) Wave height(m) Wave period(s) Pressure(kPa) Air tempC) Water tempC)
10 April 2021
7:00 WNW 16 gust 20 0.8 4.3 101.8 5 8
6:00 WNW 16 gust 22 0.8 3.9 101.6 5 8
5:00 WSW 18 gust 22 0.8 3.8 101.5 5 8
4:00 W 17 gust 26 1.0 4.4 101.5 4 8
3:00 WNW 22 gust 27 1.1 3.6 101.4 6 8
2:00 WSW 14 gust 19 0.8 3.3 101.4 7 8
1:00 SW 15 gust 17 0.7 3.0 101.3 7 8
0:00 SW 14 gust 17 0.7 3.2 101.3 7 8
09 April 2021
23:00 SW 15 gust 17 0.8 3.5 101.2 7 8
22:00 SSW 19 gust 22 1.0 3.7 101.2 7 8
21:00 S 20 gust 24 1.0 3.5 101.2 7 9
20:00 SSE 21 gust 25 0.9 3.5 101.2 7 9
19:00 SSE 18 gust 21 0.8 3.4 101.4 7 9
18:00 SSE 17 gust 21 0.9 3.4 101.5 8 9
17:00 SE 18 gust 22 0.9 3.5 101.6 8 9
16:00 SE 21 gust 24 0.8 3.3 101.7 7 9
15:00 ESE 17 gust 21 0.7 3.2 101.8 7 9
14:00 SE 17 gust 20 0.8 3.4 101.9 7 9
13:00 SE 18 gust 21 0.9 3.4 102.0 7 9
12:00 SSE 19 gust 24 0.8 3.3 102.0 7 8
11:00 ESE 14 gust 17 0.6 2.8 102.1 7 8
10:00 E 13 gust 16 0.4 2.5 102.1 6 8
9:00 E 13 gust 16 0.4 2.4 102.1 6 9
8:00 E 12 gust 13 0.3 2.3 102.1 6 9
7:00 E 12 gust 15 0.3 2.2 102.2 6 9

Zoom-in to make a selection

Map of Pacific - Georgia Basin marine weather areas Sentry Shoal - 46131 Halibut Bank - 46146 La Perouse Bank - 46206 Georgia Strait - 46303 English Bay - 46304 Discovery Island Esquimalt Harbour Kelp Reefs Malahat Race Rocks Lightstation Saturna Island Sheringham Point University of Victoria Victoria Gonzales Victoria Int'l Airport Ballenas Islands Campbell River Airport Comox Airport Entrance Island Fanny Island Nanaimo Airport Sisters Islets Estevan Point Port Alberni Tofino Airport Grief Point Howe Sound - Pam Rocks Powell River Airport Sechelt Squamish Airport Point Atkinson Sand Heads Lightstation Tsawwassen Ferry Terminal Vancouver Int'l Airport Vancouver Harbour West Vancouver
Legend:
buoy Buoy
land station Land Station

Pacific - Georgia Basin Area

Another Region

What we are doing

Date modified: